Time;durP1;ratioP1;P1;durP2;ratioP2;P2;SDS_P1;SDS_P2;PMS_P1;PMS_P2;Temp;Humidity;BMP_temperature;BMP_pressure;BME280_temperature;BME280_humidity;BME280_pressure;Samples;Min_cycle;Max_cycle;Signal;HPM_P1;HPM_P2
2022/08/18 00:02:18;;;;;;;1.17;0.80;;;;;;;29.15;38.13;98856.91;5109512;28;20449;-61
2022/08/18 00:04:44;;;;;;;1.58;0.90;;;;;;;29.17;38.18;98851.59;5109500;28;20044;-66
2022/08/18 00:07:21;;;;;;;1.67;0.95;;;;;;;29.16;38.17;98841.56;5109370;28;20051;-60
2022/08/18 00:09:47;;;;;;;1.60;0.90;;;;;;;29.17;37.98;98837.53;5109569;28;20089;-60
2022/08/18 00:12:14;;;;;;;1.77;0.95;;;;;;;29.18;38.28;98835.50;5109394;28;20040;-60
2022/08/18 00:14:40;;;;;;;1.38;0.90;;;;;;;29.16;38.16;98827.50;5109486;28;20088;-66
2022/08/18 00:17:05;;;;;;;2.10;0.95;;;;;;;29.13;38.33;98807.88;5109346;28;20130;-60
2022/08/18 00:19:31;;;;;;;1.10;0.80;;;;;;;29.17;38.02;98811.38;5109245;28;20563;-66
2022/08/18 00:21:57;;;;;;;1.17;0.80;;;;;;;29.18;37.88;98839.09;5112408;28;20055;-66
2022/08/18 00:24:22;;;;;;;1.85;0.93;;;;;;;29.16;38.41;98840.78;5112799;28;20084;-66
2022/08/18 00:26:48;;;;;;;1.42;0.82;;;;;;;29.15;38.04;98842.00;5112576;28;20138;-60
2022/08/18 00:29:13;;;;;;;1.45;0.90;;;;;;;29.18;38.21;98839.09;5110520;28;20047;-66
2022/08/18 00:31:38;;;;;;;1.25;0.90;;;;;;;29.18;38.28;98838.31;5112654;28;20384;-66
2022/08/18 00:34:05;;;;;;;1.20;0.80;;;;;;;29.15;38.26;98820.28;5112763;28;20042;-61
2022/08/18 00:36:31;;;;;;;1.25;0.80;;;;;;;29.15;38.04;98811.00;5112672;28;20051;-66
2022/08/18 00:38:56;;;;;;;1.48;0.90;;;;;;;29.16;38.08;98818.25;5112547;28;20040;-66
2022/08/18 00:41:25;;;;;;;1.60;1.00;;;;;;;29.17;38.21;98817.81;5112572;28;20040;-66
2022/08/18 00:43:51;;;;;;;1.50;0.80;;;;;;;29.19;38.00;98834.25;5112549;28;20122;-60
2022/08/18 00:46:21;;;;;;;1.27;0.95;;;;;;;29.17;38.18;98825.47;5112337;28;20075;-60
2022/08/18 00:48:48;;;;;;;1.13;0.73;;;;;;;29.19;38.36;98822.97;5112472;28;20105;-60
2022/08/18 00:51:20;;;;;;;1.33;0.90;;;;;;;29.18;38.41;98815.78;5112338;28;20048;-60
2022/08/18 00:53:51;;;;;;;1.60;0.80;;;;;;;29.18;38.38;98810.94;5112366;28;20056;-66
2022/08/18 00:56:24;;;;;;;1.53;0.80;;;;;;;29.19;38.46;98811.72;5112200;28;20051;-66
2022/08/18 00:59:04;;;;;;;1.35;0.90;;;;;;;29.18;38.46;98799.66;5112438;28;20093;-66
2022/08/18 01:01:32;;;;;;;1.20;0.90;;;;;;;29.19;38.57;98801.25;5111319;28;20051;-60
2022/08/18 01:04:06;;;;;;;1.33;0.90;;;;;;;29.18;38.13;98802.47;5111937;28;20501;-61
2022/08/18 01:06:38;;;;;;;1.20;0.80;;;;;;;29.18;38.18;98796.84;5109705;28;20052;-61
2022/08/18 01:09:04;;;;;;;1.98;0.90;;;;;;;29.18;38.25;98787.59;5112359;28;20074;-61
2022/08/18 01:11:31;;;;;;;1.60;0.80;;;;;;;29.16;38.28;98784.47;5112316;28;20043;-61
2022/08/18 01:13:58;;;;;;;1.10;0.80;;;;;;;29.16;37.98;98787.28;5112201;28;20089;-60
2022/08/18 01:22:01;;;;;;;2.55;1.23;;;;;;;29.18;38.42;98765.06;5112070;28;20184;-65
2022/08/18 01:27:17;;;;;;;1.90;0.90;;;;;;;29.17;38.24;98766.31;5111879;28;20100;-60
2022/08/18 01:29:48;;;;;;;1.27;0.80;;;;;;;29.18;38.24;98767.91;5111789;28;20400;-66
2022/08/18 01:32:18;;;;;;;1.13;0.70;;;;;;;29.18;38.23;98777.13;5110855;28;20557;-66
2022/08/18 01:34:49;;;;;;;1.58;0.90;;;;;;;29.15;38.38;98769.59;5111809;28;20046;-66
2022/08/18 01:37:16;;;;;;;2.25;0.95;;;;;;;29.18;38.52;98774.31;5111703;28;20044;-60
2022/08/18 01:39:43;;;;;;;1.73;0.90;;;;;;;29.19;38.33;98775.09;5111502;28;20125;-60
2022/08/18 01:42:09;;;;;;;1.48;0.80;;;;;;;29.18;38.13;98770.72;5111626;28;20046;-60
2022/08/18 01:44:35;;;;;;;1.00;0.70;;;;;;;29.19;38.49;98766.66;5111348;28;20114;-66
2022/08/18 01:47:00;;;;;;;1.27;0.90;;;;;;;29.18;38.46;98774.31;5111454;28;20122;-61
2022/08/18 01:49:27;;;;;;;1.50;0.93;;;;;;;29.20;38.32;98771.03;5111376;28;20377;-61
2022/08/18 01:51:54;;;;;;;2.60;0.70;;;;;;;29.20;38.41;98773.84;5111325;28;20058;-61
2022/08/18 01:54:20;;;;;;;0.95;0.60;;;;;;;29.19;38.24;98763.84;5111160;28;20543;-60
2022/08/18 01:56:48;;;;;;;0.60;0.60;;;;;;;29.18;38.33;98757.41;5111303;28;20134;-66
2022/08/18 01:59:13;;;;;;;3.05;0.98;;;;;;;29.18;38.27;98762.25;5111184;28;20081;-66
2022/08/18 02:01:41;;;;;;;1.00;0.70;;;;;;;29.20;38.49;98779.50;5111058;28;20040;-61
2022/08/18 02:04:09;;;;;;;1.52;0.80;;;;;;;29.19;38.53;98783.56;5111105;28;20070;-61
2022/08/18 02:06:36;;;;;;;1.05;0.80;;;;;;;29.19;38.59;98773.06;5111021;28;20051;-61
2022/08/18 02:09:02;;;;;;;1.90;0.90;;;;;;;29.20;38.34;98768.22;5111214;28;20105;-66
2022/08/18 02:11:28;;;;;;;1.45;0.90;;;;;;;29.17;38.35;98760.69;5111180;28;20112;-66
2022/08/18 02:13:53;;;;;;;1.15;0.80;;;;;;;29.19;38.57;98755.38;5110938;28;20047;-66
2022/08/18 02:16:19;;;;;;;1.23;0.88;;;;;;;29.20;38.31;98765.41;5110814;28;20074;-61
2022/08/18 02:18:44;;;;;;;1.10;0.70;;;;;;;29.20;38.24;98766.19;5111157;28;20039;-61
2022/08/18 02:21:16;;;;;;;1.55;0.80;;;;;;;29.21;38.35;98764.16;5110973;28;20071;-61
2022/08/18 02:23:42;;;;;;;1.40;0.80;;;;;;;29.20;38.49;98762.59;5111042;28;20048;-66
2022/08/18 02:26:11;;;;;;;1.27;0.80;;;;;;;29.20;38.51;98763.38;5110661;28;20040;-66
2022/08/18 02:28:37;;;;;;;1.88;0.90;;;;;;;29.18;38.33;98765.88;5110831;28;20067;-66
2022/08/18 02:31:14;;;;;;;1.80;0.90;;;;;;;29.19;38.53;98770.25;5110758;28;20412;-66
2022/08/18 02:33:40;;;;;;;0.95;0.63;;;;;;;29.21;38.39;98764.16;5110453;28;20396;-61
2022/08/18 02:36:06;;;;;;;0.90;0.70;;;;;;;29.21;38.38;98758.53;5110789;28;20088;-65
2022/08/18 02:38:32;;;;;;;1.58;0.90;;;;;;;29.19;38.51;98750.53;5110831;28;20040;-60
2022/08/18 02:41:02;;;;;;;1.33;0.73;;;;;;;29.19;38.34;98739.28;5110529;28;20525;-61
2022/08/18 02:43:28;;;;;;;1.20;0.75;;;;;;;29.20;38.65;98751.31;5110385;28;20139;-61
2022/08/18 02:45:53;;;;;;;1.23;0.80;;;;;;;29.17;38.43;98743.78;5110506;28;20040;-66
2022/08/18 02:48:34;;;;;;;1.15;0.75;;;;;;;29.20;38.39;98749.28;5110544;28;20044;-61
2022/08/18 02:51:05;;;;;;;1.83;0.80;;;;;;;29.20;38.32;98746.47;5110516;28;20054;-60
2022/08/18 02:53:31;;;;;;;0.95;0.70;;;;;;;29.19;38.63;98744.91;5110628;28;20047;-60
2022/08/18 02:56:21;;;;;;;1.45;0.88;;;;;;;29.20;38.58;98742.88;5110530;28;20043;-66
2022/08/18 02:59:08;;;;;;;1.73;0.90;;;;;;;29.20;38.45;98735.22;5110228;28;20063;-66
2022/08/18 03:01:38;;;;;;;1.20;0.80;;;;;;;29.20;38.45;98729.59;5109889;28;20485;-66
2022/08/18 03:04:06;;;;;;;1.25;0.85;;;;;;;29.19;38.31;98724.41;5110624;28;20130;-66
2022/08/18 03:06:34;;;;;;;1.40;0.88;;;;;;;29.21;38.58;98733.19;5110173;28;20085;-66
2022/08/18 03:09:01;;;;;;;1.08;0.70;;;;;;;29.20;38.56;98735.22;5110021;28;20054;-66
2022/08/18 03:11:28;;;;;;;1.00;0.80;;;;;;;29.20;38.75;98740.06;5110106;28;20415;-66
2022/08/18 03:13:55;;;;;;;1.00;0.70;;;;;;;29.19;38.69;98730.03;5110249;28;20555;-66
2022/08/18 03:16:23;;;;;;;1.08;0.80;;;;;;;29.20;38.55;98740.06;5110175;28;20116;-66
2022/08/18 03:18:50;;;;;;;1.20;0.73;;;;;;;29.20;38.58;98735.22;5108242;28;20058;-66
2022/08/18 03:21:20;;;;;;;1.33;0.75;;;;;;;29.21;38.38;98736.00;5109848;28;20036;-60
2022/08/18 03:23:45;;;;;;;1.35;0.77;;;;;;;29.19;38.69;98739.28;5109891;28;20051;-66
2022/08/18 03:26:13;;;;;;;1.20;0.85;;;;;;;29.21;38.39;98736.00;5109724;28;20048;-60
2022/08/18 03:28:43;;;;;;;1.35;0.80;;;;;;;29.20;38.64;98728.78;5110148;28;20050;-61
2022/08/18 03:31:10;;;;;;;0.95;0.77;;;;;;;29.18;38.71;98732.06;5109858;28;20047;-60
2022/08/18 03:33:36;;;;;;;1.17;0.70;;;;;;;29.16;38.75;98742.22;5109855;28;20063;-60
2022/08/18 03:36:08;;;;;;;1.13;0.70;;;;;;;29.19;38.65;98738.50;5109589;28;20044;-66
2022/08/18 03:38:33;;;;;;;1.20;0.70;;;;;;;29.21;38.79;98744.44;5109428;28;20054;-66
2022/08/18 03:40:59;;;;;;;1.10;0.77;;;;;;;29.20;38.66;98738.03;5109910;28;20658;-61
2022/08/18 03:43:25;;;;;;;1.13;0.80;;;;;;;29.21;38.75;98736.00;5109935;28;20483;-66
2022/08/18 03:45:52;;;;;;;1.63;0.77;;;;;;;29.18;38.55;98739.72;5109555;28;20052;-66
2022/08/18 03:48:18;;;;;;;1.13;0.77;;;;;;;29.22;38.40;98754.47;5109534;28;20032;-60
2022/08/18 03:50:45;;;;;;;1.17;0.60;;;;;;;29.20;38.61;98745.69;5109410;28;20051;-61
2022/08/18 03:53:10;;;;;;;1.08;0.70;;;;;;;29.22;38.57;98748.84;5109725;28;20058;-61
2022/08/18 03:55:40;;;;;;;1.17;0.70;;;;;;;29.19;38.71;98739.28;5110749;28;20039;-61
2022/08/18 03:58:05;;;;;;;1.23;0.82;;;;;;;29.21;38.67;98745.25;5113058;28;20100;-66
2022/08/18 04:00:32;;;;;;;1.50;0.80;;;;;;;29.21;38.47;98745.25;5113407;28;20039;-60
2022/08/18 04:03:01;;;;;;;0.95;0.60;;;;;;;29.21;38.57;98736.00;5113212;28;20071;-60
2022/08/18 04:05:27;;;;;;;1.30;0.80;;;;;;;29.20;38.75;98734.44;5113193;28;20087;-66
2022/08/18 04:07:53;;;;;;;1.00;0.80;;;;;;;29.21;38.77;98733.19;5113019;28;20048;-60
2022/08/18 04:10:19;;;;;;;1.13;0.70;;;;;;;29.19;38.85;98741.31;5112979;28;20070;-61
2022/08/18 04:12:44;;;;;;;1.00;0.70;;;;;;;29.21;38.72;98741.63;5113053;28;20558;-61
2022/08/18 04:15:10;;;;;;;1.27;0.80;;;;;;;29.21;38.58;98738.81;5110926;28;20051;-60
2022/08/18 04:17:36;;;;;;;1.15;0.70;;;;;;;29.21;38.67;98742.41;5113053;28;20078;-66
2022/08/18 04:20:03;;;;;;;0.93;0.63;;;;;;;29.21;38.89;98748.06;5112798;28;20434;-66
2022/08/18 04:22:31;;;;;;;2.00;0.70;;;;;;;29.22;39.01;98760.09;5112788;28;20082;-66
2022/08/18 04:24:57;;;;;;;1.10;0.60;;;;;;;29.21;38.70;98753.69;5112697;28;20434;-66
2022/08/18 04:27:23;;;;;;;1.23;0.80;;;;;;;29.21;38.70;98758.53;5112739;28;20047;-66
2022/08/18 04:29:49;;;;;;;1.15;0.73;;;;;;;29.22;38.84;98748.84;5112776;28;20396;-61
2022/08/18 04:32:14;;;;;;;1.23;0.70;;;;;;;29.21;38.89;98755.72;5112763;28;20047;-66
2022/08/18 04:34:40;;;;;;;1.30;0.70;;;;;;;29.21;38.84;98752.91;5112670;28;20617;-60
2022/08/18 04:37:07;;;;;;;1.10;0.65;;;;;;;29.20;38.84;98757.75;5112580;28;20153;-61
2022/08/18 04:39:33;;;;;;;0.95;0.70;;;;;;;29.22;38.99;98768.56;5112485;28;20159;-60
2022/08/18 04:42:00;;;;;;;1.58;0.80;;;;;;;29.23;38.72;98761.72;5112616;28;20122;-60
2022/08/18 04:44:25;;;;;;;0.80;0.60;;;;;;;29.21;38.86;98747.28;5112559;28;20067;-66
2022/08/18 04:46:52;;;;;;;10.05;1.13;;;;;;;29.19;39.16;98750.53;5112274;28;20568;-63
2022/08/18 04:49:20;;;;;;;2.33;1.00;;;;;;;28.85;40.64;98758.75;5112218;28;20048;-63
2022/08/18 04:54:37;;;;;;;2.75;1.00;;;;;;;28.25;41.91;98733.84;5112570;28;20469;-62
2022/08/18 04:57:13;;;;;;;6.65;1.30;;;;;;;27.98;42.74;98729.31;5112536;28;20097;-60
2022/08/18 04:59:42;;;;;;;6.10;1.20;;;;;;;27.83;43.33;98730.13;5094039;28;20694;-62
2022/08/18 05:02:08;;;;;;;3.80;1.20;;;;;;;27.59;43.50;98727.44;5112317;28;20519;-62
2022/08/18 05:04:36;;;;;;;3.47;1.20;;;;;;;27.36;43.90;98725.59;5112328;28;20486;-63
2022/08/18 05:07:02;;;;;;;5.35;1.38;;;;;;;27.19;44.62;98721.16;5110940;28;20050;-60
2022/08/18 05:09:28;;;;;;;4.90;1.13;;;;;;;27.11;45.31;98717.72;5112144;28;20044;-60
2022/08/18 05:11:53;;;;;;;5.70;1.40;;;;;;;26.99;45.47;98714.75;5111912;28;20036;-62
2022/08/18 05:14:19;;;;;;;4.57;1.20;;;;;;;26.92;46.14;98724.09;5112065;28;20056;-58
2022/08/18 05:16:45;;;;;;;5.20;1.35;;;;;;;26.78;46.85;98733.59;5111910;28;20426;-59
2022/08/18 05:19:11;;;;;;;26.88;1.95;;;;;;;26.68;46.65;98748.66;5111825;28;20042;-58
2022/08/18 05:21:38;;;;;;;10.13;1.42;;;;;;;26.56;46.88;98738.84;5111801;28;20457;-65
2022/08/18 05:24:04;;;;;;;2.13;1.13;;;;;;;26.48;46.87;98750.66;5112009;28;20044;-58
2022/08/18 05:26:30;;;;;;;5.28;1.70;;;;;;;26.40;47.36;98752.81;5111850;28;20499;-65
2022/08/18 05:28:56;;;;;;;4.63;1.20;;;;;;;26.32;47.66;98751.31;5111868;28;20054;-58
2022/08/18 05:31:24;;;;;;;6.82;1.55;;;;;;;26.42;47.35;98757.97;5111639;28;20126;-59
2022/08/18 05:33:51;;;;;;;4.50;1.30;;;;;;;26.61;47.08;98751.59;5111685;28;20069;-59
2022/08/18 05:36:19;;;;;;;7.07;1.40;;;;;;;26.80;46.48;98750.81;5111637;28;20457;-59
2022/08/18 05:39:02;;;;;;;5.78;1.33;;;;;;;26.96;46.06;98754.91;5111692;28;20079;-59
2022/08/18 05:41:33;;;;;;;7.15;1.35;;;;;;;27.11;45.63;98759.81;5111853;28;20130;-68
2022/08/18 05:44:00;;;;;;;6.25;1.23;;;;;;;27.22;45.15;98770.03;5108968;28;20082;-68
2022/08/18 05:46:51;;;;;;;7.18;0.98;;;;;;;27.35;44.71;98766.09;5111530;28;20507;-59
2022/08/18 05:49:19;;;;;;;8.68;1.20;;;;;;;27.46;44.43;98773.53;5111529;28;20055;-67
2022/08/18 05:51:49;;;;;;;10.85;1.23;;;;;;;27.53;44.24;98773.34;5111458;28;20122;-68
2022/08/18 05:57:08;;;;;;;8.10;1.30;;;;;;;27.67;43.67;98762.59;5111693;28;20128;-59
2022/08/18 05:59:38;;;;;;;3.20;0.90;;;;;;;27.77;43.73;98769.19;5111434;28;20048;-59
2022/08/18 06:02:10;;;;;;;6.72;1.25;;;;;;;27.82;43.95;98774.28;5111409;28;20134;-69
2022/08/18 06:04:48;;;;;;;2.15;0.88;;;;;;;27.82;43.31;98779.13;5111273;28;20044;-59
2022/08/18 06:07:17;;;;;;;4.88;1.10;;;;;;;27.66;43.40;98777.84;5111183;28;20149;-59
2022/08/18 06:09:43;;;;;;;1.98;0.90;;;;;;;27.49;43.99;98781.84;5111206;28;20055;-59
2022/08/18 06:12:35;;;;;;;3.88;1.00;;;;;;;27.38;44.30;98784.91;5111133;28;20081;-59
2022/08/18 06:15:39;;;;;;;3.80;0.83;;;;;;;27.39;44.53;98780.88;5110975;28;20062;-68
2022/08/18 06:18:26;;;;;;;3.88;1.00;;;;;;;27.41;44.19;98780.44;5110691;28;20488;-68
2022/08/18 06:21:13;;;;;;;2.38;1.00;;;;;;;27.48;44.15;98785.09;5111033;28;20529;-68
2022/08/18 06:23:56;;;;;;;1.85;0.80;;;;;;;27.52;43.95;98795.03;5110873;28;20128;-60
2022/08/18 06:26:46;;;;;;;3.92;1.13;;;;;;;27.56;43.85;98795.75;5110983;28;20044;-59
2022/08/18 06:29:24;;;;;;;3.60;0.90;;;;;;;27.60;43.58;98804.09;5110909;28;20075;-68
2022/08/18 06:32:01;;;;;;;2.38;1.05;;;;;;;27.64;43.66;98790.75;5110793;28;20051;-59
2022/08/18 06:34:43;;;;;;;2.28;0.80;;;;;;;27.70;43.23;98786.22;5110885;28;20058;-68
2022/08/18 06:37:17;;;;;;;1.90;0.70;;;;;;;27.75;43.52;98785.72;5110254;28;20411;-59
2022/08/18 06:39:49;;;;;;;1.65;0.70;;;;;;;27.78;43.49;98779.19;5110671;28;20070;-68
2022/08/18 06:42:29;;;;;;;1.60;0.85;;;;;;;27.85;43.35;98775.44;5110390;28;20059;-59
2022/08/18 06:45:01;;;;;;;3.05;0.82;;;;;;;27.85;43.44;98776.22;5108720;28;20073;-68
2022/08/18 06:47:52;;;;;;;1.58;0.70;;;;;;;27.87;43.41;98770.97;5110572;28;20048;-68
2022/08/18 06:50:39;;;;;;;2.38;0.90;;;;;;;27.91;43.49;98776.50;5103348;28;20066;-60
2022/08/18 06:53:07;;;;;;;1.90;0.73;;;;;;;27.91;43.34;98776.50;5110350;28;20051;-59
2022/08/18 06:55:42;;;;;;;3.65;0.77;;;;;;;27.92;43.26;98775.25;5110452;28;20055;-59
2022/08/18 06:58:10;;;;;;;1.27;0.80;;;;;;;27.96;43.15;98778.78;5110506;28;20408;-60
2022/08/18 07:00:38;;;;;;;1.25;0.60;;;;;;;27.96;43.15;98773.94;5107559;28;20035;-68
2022/08/18 07:03:06;;;;;;;2.85;0.93;;;;;;;28.00;43.19;98773.84;5109474;28;20073;-59
2022/08/18 07:05:33;;;;;;;1.80;0.70;;;;;;;28.02;43.04;98776.25;5108785;28;20063;-68
2022/08/18 07:08:11;;;;;;;1.42;0.90;;;;;;;28.05;43.06;98770.50;5109982;28;20104;-68
2022/08/18 07:10:40;;;;;;;1.88;0.88;;;;;;;28.09;42.92;98759.19;5109837;28;20534;-60
2022/08/18 07:13:13;;;;;;;1.05;0.70;;;;;;;28.06;43.01;98738.34;5109955;28;20056;-60
2022/08/18 07:15:38;;;;;;;;;;;;;;;28.13;42.81;98746.59;5109066;28;20587;-60
2022/08/18 07:18:06;;;;;;;2.40;0.80;;;;;;;28.17;42.78;98743.72;5109277;28;19920;-60
2022/08/18 07:21:04;;;;;;;2.83;0.80;;;;;;;28.18;42.52;98745.28;5108480;28;20043;-60
2022/08/18 07:23:33;;;;;;;1.67;0.90;;;;;;;28.17;42.54;98746.53;5064146;28;20055;-68
2022/08/18 07:26:04;;;;;;;1.25;0.70;;;;;;;28.18;42.65;98742.47;5109338;28;20396;-67
2022/08/18 07:28:51;;;;;;;1.88;0.90;;;;;;;28.18;42.58;98746.06;5109496;28;20101;-68
2022/08/18 07:31:40;;;;;;;2.33;0.90;;;;;;;28.19;42.59;98741.25;5108291;28;20053;-60
2022/08/18 07:34:11;;;;;;;1.90;0.68;;;;;;;28.19;42.53;98732.81;5109984;28;20036;-68
2022/08/18 07:37:04;;;;;;;1.25;0.70;;;;;;;28.28;42.43;98723.72;5109457;28;20044;-68
2022/08/18 07:39:37;;;;;;;1.33;0.65;;;;;;;28.24;42.18;98712.59;5109342;28;20055;-60
2022/08/18 07:42:08;;;;;;;1.42;0.70;;;;;;;28.23;42.30;98711.81;5109434;28;20047;-60
2022/08/18 07:44:42;;;;;;;1.10;0.70;;;;;;;28.22;42.50;98710.22;5109492;28;20468;-68
2022/08/18 07:47:17;;;;;;;1.88;0.80;;;;;;;28.23;42.45;98706.19;5106555;28;20131;-59
2022/08/18 07:49:45;;;;;;;1.00;0.70;;;;;;;28.28;42.29;98709.66;5108487;28;20039;-60
2022/08/18 07:52:20;;;;;;;2.00;0.65;;;;;;;28.28;42.40;98692.78;5109179;28;20415;-68
2022/08/18 07:55:07;;;;;;;1.85;0.70;;;;;;;28.28;42.05;98679.53;5109687;28;20044;-60
2022/08/18 07:57:38;;;;;;;1.25;0.63;;;;;;;28.28;42.30;98659.03;5109245;28;20499;-60
2022/08/18 08:00:20;;;;;;;1.20;0.60;;;;;;;28.30;42.19;98650.97;5109239;28;20074;-59
2022/08/18 08:03:13;;;;;;;1.55;0.60;;;;;;;28.30;42.14;98662.22;5104930;28;20101;-60
2022/08/18 08:06:01;;;;;;;1.40;0.80;;;;;;;28.30;42.07;98691.16;5093190;28;20502;-60
2022/08/18 08:08:38;;;;;;;1.75;0.65;;;;;;;28.30;42.11;98713.66;5085390;28;20563;-68
2022/08/18 08:11:28;;;;;;;1.00;0.60;;;;;;;28.33;42.10;98729.66;5094450;28;20054;-68
2022/08/18 08:13:53;;;;;;;1.67;0.80;;;;;;;28.37;42.06;98735.19;5101208;28;20051;-68
2022/08/18 08:16:27;;;;;;;1.13;0.60;;;;;;;28.31;42.09;98720.88;5088351;28;20040;-68
2022/08/18 08:19:28;;;;;;;0.95;0.60;;;;;;;28.34;41.92;98722.78;5099673;28;20133;-68
2022/08/18 08:22:11;;;;;;;1.15;0.60;;;;;;;28.39;41.89;98710.22;5076861;28;20045;-68
2022/08/18 08:24:58;;;;;;;1.20;0.60;;;;;;;28.40;41.69;98697.72;5094087;28;20127;-60
2022/08/18 08:27:31;;;;;;;0.65;0.60;;;;;;;28.40;41.84;98700.53;5091732;28;20075;-60
2022/08/18 08:30:25;;;;;;;1.00;0.60;;;;;;;28.39;41.79;98696.94;5086474;28;20044;-60
2022/08/18 08:33:16;;;;;;;0.77;0.50;;;;;;;28.45;41.71;98685.94;5084114;28;20040;-60
2022/08/18 08:36:02;;;;;;;1.10;0.77;;;;;;;28.42;41.78;98681.97;5090414;28;20520;-60
2022/08/18 08:38:45;;;;;;;0.77;0.57;;;;;;;28.42;41.87;98684.00;5079139;28;20040;-68
2022/08/18 08:41:49;;;;;;;1.08;0.60;;;;;;;28.41;41.77;98677.56;5090039;28;20096;-68
2022/08/18 08:44:30;;;;;;;0.88;0.60;;;;;;;28.43;41.71;98665.88;5089444;28;20044;-68
2022/08/18 08:47:09;;;;;;;1.85;0.63;;;;;;;28.43;41.67;98658.25;5084952;28;20040;-66
2022/08/18 08:49:44;;;;;;;1.38;0.50;;;;;;;28.43;41.68;98665.88;5093231;28;20048;-66
2022/08/18 08:52:21;;;;;;;0.60;0.50;;;;;;;28.24;40.41;98671.19;5098999;28;20066;-67
2022/08/18 08:55:20;;;;;;;0.60;0.50;;;;;;;27.96;38.87;98655.88;5102117;28;20063;-66
2022/08/18 08:58:01;;;;;;;3.88;0.55;;;;;;;27.70;38.78;98671.81;5090216;28;20055;-60
2022/08/18 09:00:28;;;;;;;1.60;0.70;;;;;;;27.51;38.19;98674.69;5097400;28;20123;-61
2022/08/18 09:03:08;;;;;;;2.22;0.47;;;;;;;27.30;38.00;98671.16;5092277;28;20420;-66
2022/08/18 09:05:40;;;;;;;1.65;0.70;;;;;;;27.15;37.25;98681.94;5093726;28;20054;-60
2022/08/18 09:08:08;;;;;;;1.27;0.63;;;;;;;27.00;38.09;98680.63;5092999;28;20601;-67
2022/08/18 09:10:51;;;;;;;1.58;0.60;;;;;;;26.78;39.43;98699.94;5098216;28;20101;-60
2022/08/18 09:13:54;;;;;;;2.25;0.70;;;;;;;26.70;38.05;98695.69;5076489;28;20427;-60
2022/08/18 09:16:35;;;;;;;0.98;0.63;;;;;;;26.61;37.68;98698.31;5103408;28;20044;-66
2022/08/18 09:19:28;;;;;;;0.98;0.60;;;;;;;26.48;39.61;98698.16;5102517;28;20052;-61
2022/08/18 09:21:59;;;;;;;0.95;0.60;;;;;;;26.44;38.98;98693.84;5094251;28;20071;-61
2022/08/18 09:24:41;;;;;;;0.77;0.52;;;;;;;26.41;37.82;98689.09;5091756;28;20040;-66
2022/08/18 09:27:34;;;;;;;0.77;0.50;;;;;;;26.37;40.46;98682.75;5096047;28;20055;-67
2022/08/18 09:30:02;;;;;;;1.50;0.60;;;;;;;26.33;39.41;98689.19;5093643;28;20048;-59
2022/08/18 09:32:27;;;;;;;0.85;0.60;;;;;;;26.31;38.75;98691.66;5093223;28;20040;-60
2022/08/18 09:35:38;;;;;;;0.57;0.40;;;;;;;26.25;40.58;98687.75;5084039;28;20051;-61
2022/08/18 09:44:11;;;;;;;0.70;0.50;;;;;;;26.09;40.86;98679.25;4978849;28;20560;-60
2022/08/18 09:46:46;;;;;;;1.23;0.60;;;;;;;26.13;39.10;98673.56;4989026;28;20054;-66
2022/08/18 09:49:26;;;;;;;0.82;0.45;;;;;;;26.08;41.26;98671.28;4980399;28;20077;-60
2022/08/18 09:51:57;;;;;;;1.00;0.60;;;;;;;26.10;40.52;98663.22;4988813;28;20149;-67
2022/08/18 09:54:32;;;;;;;0.82;0.60;;;;;;;26.08;40.29;98671.28;4985411;28;20058;-60
2022/08/18 09:57:17;;;;;;;1.05;0.60;;;;;;;26.09;41.63;98670.06;4987205;28;20521;-60
2022/08/18 09:59:46;;;;;;;1.00;0.52;;;;;;;26.09;40.27;98676.47;4984241;28;20512;-66
2022/08/18 10:02:31;;;;;;;2.45;0.60;;;;;;;26.05;41.31;98675.72;4979866;28;20498;-66
2022/08/18 10:05:18;;;;;;;1.25;0.60;;;;;;;25.97;41.12;98680.66;4985116;28;20121;-66
2022/08/18 10:08:02;;;;;;;1.30;0.40;;;;;;;25.99;39.97;98674.63;4985537;28;20130;-60
2022/08/18 10:11:03;;;;;;;1.20;0.70;;;;;;;25.99;41.69;98680.22;5089381;28;20044;-60
2022/08/18 10:13:55;;;;;;;1.33;0.68;;;;;;;26.00;41.06;98679.00;5081166;28;20043;-62
2022/08/18 10:16:33;;;;;;;0.77;0.50;;;;;;;25.98;41.13;98679.44;5093288;28;20127;-66
2022/08/18 10:19:23;;;;;;;0.90;0.50;;;;;;;26.01;41.72;98677.81;5076994;28;20557;-62
2022/08/18 10:21:56;;;;;;;1.25;0.43;;;;;;;25.99;40.16;98677.44;5068056;28;20475;-66
2022/08/18 10:24:22;;;;;;;0.75;0.60;;;;;;;25.91;41.51;98676.78;5092548;28;20044;-59
2022/08/18 10:26:47;;;;;;;0.85;0.50;;;;;;;25.91;41.19;98673.19;5085321;28;20047;-60
2022/08/18 10:29:28;;;;;;;1.17;0.60;;;;;;;25.84;40.11;98670.50;5109772;28;20044;-66
2022/08/18 10:31:54;;;;;;;1.77;0.55;;;;;;;25.75;42.18;98679.47;5088044;28;20445;-66
2022/08/18 10:34:43;;;;;;;0.57;0.50;;;;;;;25.68;41.36;98674.75;5090082;28;20542;-60
2022/08/18 10:37:21;;;;;;;1.70;0.60;;;;;;;25.77;41.19;98675.00;5104076;28;20074;-67
2022/08/18 10:39:52;;;;;;;1.65;0.50;;;;;;;25.81;41.23;98674.16;5108729;28;20588;-60
2022/08/18 10:42:37;;;;;;;0.57;0.50;;;;;;;25.81;41.32;98668.56;5089852;28;20520;-67
2022/08/18 10:45:12;;;;;;;0.77;0.47;;;;;;;25.88;40.55;98671.25;5089870;28;20043;-66
2022/08/18 10:47:37;;;;;;;0.77;0.52;;;;;;;25.86;41.05;98671.69;5107439;28;20056;-67
2022/08/18 10:50:21;;;;;;;1.05;0.60;;;;;;;25.83;40.82;98666.13;5110132;28;20043;-67
2022/08/18 10:53:17;;;;;;;0.40;0.40;;;;;;;25.84;41.16;98674.09;5110208;28;20052;-60
2022/08/18 10:56:01;;;;;;;1.13;0.60;;;;;;;25.91;40.78;98675.97;5109697;28;20408;-67
2022/08/18 10:58:40;;;;;;;0.90;0.40;;;;;;;25.86;40.56;98666.06;5105432;28;20056;-59
2022/08/18 11:01:24;;;;;;;0.70;0.50;;;;;;;25.84;40.01;98676.09;5093851;28;20048;-66
2022/08/18 11:04:00;;;;;;;1.10;0.60;;;;;;;25.84;39.73;98678.91;5098736;28;20050;-59
2022/08/18 11:06:26;;;;;;;0.70;0.50;;;;;;;25.78;39.14;98673.78;5093256;28;20512;-67
2022/08/18 11:08:56;;;;;;;0.88;0.47;;;;;;;25.72;40.16;98675.50;5089515;28;20141;-66
2022/08/18 11:11:33;;;;;;;0.73;0.50;;;;;;;25.62;40.68;98670.03;5095487;28;20567;-60
2022/08/18 11:14:14;;;;;;;1.17;0.68;;;;;;;25.63;39.92;98680.81;5100388;28;20050;-59
2022/08/18 11:16:58;;;;;;;0.93;0.52;;;;;;;25.61;40.88;98676.88;5101252;28;20089;-60
2022/08/18 11:19:24;;;;;;;1.05;0.50;;;;;;;25.61;41.30;98685.28;5097594;28;20036;-66
2022/08/18 11:21:51;;;;;;;0.85;0.60;;;;;;;25.67;40.00;98675.97;5098777;28;20039;-67
2022/08/18 11:24:23;;;;;;;0.60;0.43;;;;;;;25.66;41.04;98679.97;5095409;28;20051;-59
2022/08/18 11:26:51;;;;;;;0.80;0.50;;;;;;;25.54;41.93;98674.97;5100355;28;20054;-67
2022/08/18 11:29:32;;;;;;;0.57;0.40;;;;;;;25.59;40.86;98674.50;5089593;28;20076;-59
2022/08/18 11:32:04;;;;;;;1.17;0.57;;;;;;;25.58;41.17;98672.91;5103223;28;20134;-59
2022/08/18 11:34:37;;;;;;;0.52;0.40;;;;;;;25.38;42.30;98664.44;5109725;28;20048;-59
2022/08/18 11:37:05;;;;;;;;;;;;;;;25.50;41.04;98669.44;5110045;28;20036;-66
2022/08/18 11:39:30;;;;;;;0.68;0.45;;;;;;;25.52;41.05;98669.00;5109637;28;19949;-66
2022/08/18 11:41:57;;;;;;;0.55;0.50;;;;;;;25.48;42.28;98662.66;5093596;28;20447;-59
2022/08/18 11:44:30;;;;;;;0.60;0.40;;;;;;;25.55;41.17;98670.16;5089295;28;20411;-59
2022/08/18 11:47:09;;;;;;;0.40;0.40;;;;;;;25.56;41.16;98661.34;5094036;28;20044;-66
2022/08/18 11:49:36;;;;;;;0.60;0.40;;;;;;;25.47;42.40;98656.28;5089221;28;20043;-67
2022/08/18 11:52:16;;;;;;;0.55;0.45;;;;;;;25.42;41.85;98658.75;5103555;28;20135;-59
2022/08/18 11:54:47;;;;;;;0.63;0.40;;;;;;;25.48;40.90;98659.88;5109545;28;20044;-59
2022/08/18 11:57:39;;;;;;;0.50;0.40;;;;;;;25.45;42.53;98661.53;5109073;28;20487;-67
2022/08/18 12:00:38;;;;;;;0.70;0.43;;;;;;;25.45;41.49;98663.53;5109268;28;20054;-66
2022/08/18 12:03:14;;;;;;;0.63;0.40;;;;;;;25.49;42.21;98665.03;5109443;28;20043;-59
2022/08/18 12:05:56;;;;;;;1.15;0.60;;;;;;;25.34;42.78;98657.31;5108101;28;20547;-67
2022/08/18 12:08:34;;;;;;;0.40;0.40;;;;;;;25.49;42.86;98667.03;5097530;28;20052;-66
2022/08/18 12:11:20;;;;;;;0.57;0.30;;;;;;;25.61;43.33;98660.06;5100225;28;20039;-65
2022/08/18 12:13:55;;;;;;;0.77;0.40;;;;;;;25.78;43.15;98667.38;5100096;28;20048;-60
2022/08/18 12:16:38;;;;;;;0.35;0.30;;;;;;;26.00;42.85;98659.38;5109663;28;20039;-60
2022/08/18 12:19:05;;;;;;;0.70;0.40;;;;;;;26.15;42.88;98668.31;5105688;28;20048;-60
2022/08/18 12:21:31;;;;;;;1.42;0.40;;;;;;;26.25;42.69;98664.53;5102902;28;20091;-65
2022/08/18 12:23:57;;;;;;;0.55;0.40;;;;;;;26.41;42.94;98666.66;5112224;28;20063;-65